Time;durP1;ratioP1;P1;durP2;ratioP2;P2;SDS_P1;SDS_P2;PMS_P1;PMS_P2;Temp;Humidity;BMP_temperature;BMP_pressure;BME280_temperature;BME280_humidity;BME280_pressure;Samples;Min_cycle;Max_cycle;Signal;HPM_P1;HPM_P2
2021/03/16 00:01:23;;;;;;;1.93;1.57;;;;;;;3.36;100.00;99182.34;1878738;76;21345;-76
2021/03/16 00:03:54;;;;;;;3.63;2.40;;;;;;;3.37;100.00;99192.06;1790873;79;21184;-75
2021/03/16 00:06:32;;;;;;;2.40;2.10;;;;;;;3.38;100.00;99189.75;1818458;78;21013;-75
2021/03/16 00:09:00;;;;;;;3.80;2.10;;;;;;;3.36;100.00;99182.34;1790799;80;21025;-76
2021/03/16 00:11:29;;;;;;;4.90;2.70;;;;;;;3.36;100.00;99189.53;1823250;78;21705;-77
2021/03/16 00:13:57;;;;;;;3.27;2.13;;;;;;;3.34;100.00;99184.83;1803532;79;21123;-76
2021/03/16 00:16:26;;;;;;;2.27;1.77;;;;;;;3.34;100.00;99179.48;1790577;79;20985;-76
2021/03/16 00:18:54;;;;;;;4.63;2.50;;;;;;;3.34;100.00;99178.98;1823253;78;20958;-75
2021/03/16 00:21:22;;;;;;;3.37;2.07;;;;;;;3.35;100.00;99175.84;1790753;80;21613;-77
2021/03/16 00:23:50;;;;;;;2.50;2.17;;;;;;;3.36;100.00;99174.84;1823403;78;21542;-76
2021/03/16 00:26:18;;;;;;;6.37;2.30;;;;;;;3.36;100.00;99172.99;1790841;80;21574;-76
2021/03/16 00:28:46;;;;;;;3.57;1.73;;;;;;;3.35;100.00;99160.64;1822715;78;21060;-77
2021/03/16 00:31:14;;;;;;;2.33;2.13;;;;;;;3.35;100.00;99168.66;1790324;79;20946;-76
2021/03/16 00:33:42;;;;;;;2.87;1.97;;;;;;;3.35;100.00;99164.65;1822503;78;20989;-76
2021/03/16 00:36:10;;;;;;;4.00;2.03;;;;;;;3.35;100.00;99165.98;1790306;80;20977;-75
2021/03/16 00:38:39;;;;;;;4.73;3.07;;;;;;;3.34;100.00;99165.63;1822781;78;21146;-76
2021/03/16 00:41:08;;;;;;;1.80;1.70;;;;;;;3.35;100.00;99163.81;1746790;80;21354;-76
2021/03/16 00:43:36;;;;;;;5.10;2.77;;;;;;;3.36;100.00;99156.13;1808113;78;20935;-77
2021/03/16 00:46:04;;;;;;;2.60;2.40;;;;;;;3.35;100.00;99155.30;1798981;79;21288;-76
2021/03/16 00:48:32;;;;;;;6.70;2.83;;;;;;;3.34;100.00;99158.94;1807808;78;21045;-76
2021/03/16 00:51:01;;;;;;;3.03;1.90;;;;;;;3.32;100.00;99160.92;1777983;80;22463;-76
2021/03/16 00:53:29;;;;;;;2.83;2.10;;;;;;;3.31;100.00;99155.72;1794577;78;21062;-76
2021/03/16 00:55:59;;;;;;;2.27;2.00;;;;;;;3.30;100.00;99166.91;1750789;81;20952;-77
2021/03/16 00:58:28;;;;;;;3.90;2.67;;;;;;;3.29;100.00;99162.55;1771855;81;21532;-77
2021/03/16 01:00:57;;;;;;;2.50;1.80;;;;;;;3.26;100.00;99168.67;1755391;81;20925;-76
2021/03/16 01:03:26;;;;;;;4.53;2.50;;;;;;;3.23;100.00;99163.97;1771905;80;21516;-76
2021/03/16 01:05:54;;;;;;;3.07;2.10;;;;;;;3.21;100.00;99163.78;1755371;81;21502;-76
2021/03/16 01:08:22;;;;;;;4.40;2.40;;;;;;;3.17;100.00;99155.69;1771800;81;20990;-76
2021/03/16 01:10:51;;;;;;;3.90;2.20;;;;;;;3.12;100.00;99156.65;1755290;81;21028;-77
2021/03/16 01:13:20;;;;;;;2.63;2.20;;;;;;;3.07;100.00;99156.23;1771843;81;21065;-76
2021/03/16 01:15:47;;;;;;;1.90;1.70;;;;;;;3.02;100.00;99153.48;1755452;81;21333;-76
2021/03/16 01:18:15;;;;;;;6.47;2.30;;;;;;;2.98;100.00;99152.60;1771567;80;20946;-75
2021/03/16 01:20:46;;;;;;;2.77;2.17;;;;;;;2.91;100.00;99146.98;1760470;81;20989;-77
2021/03/16 01:23:14;;;;;;;2.43;2.20;;;;;;;2.85;100.00;99148.41;1774964;80;21053;-76
2021/03/16 01:25:44;;;;;;;2.37;2.10;;;;;;;2.81;100.00;99154.17;1756931;81;21012;-75
2021/03/16 01:28:14;;;;;;;2.77;2.33;;;;;;;2.78;100.00;99157.12;1774994;80;21812;-75
2021/03/16 01:30:42;;;;;;;3.57;2.40;;;;;;;2.72;100.00;99151.86;1760965;81;20972;-76
2021/03/16 01:33:14;;;;;;;5.65;3.12;;;;;;;2.68;100.00;99153.14;1803551;79;20982;-76
2021/03/16 01:35:43;;;;;;;7.27;2.93;;;;;;;2.64;100.00;99151.25;1769401;79;21575;-76
2021/03/16 01:38:10;;;;;;;6.23;2.23;;;;;;;2.60;100.00;99153.86;1795795;80;21582;-76
2021/03/16 01:40:40;;;;;;;2.13;1.97;;;;;;;2.59;100.00;99152.66;1795910;79;22308;-76
2021/03/16 01:43:20;;;;;;;2.83;1.77;;;;;;;2.55;100.00;99145.44;1796648;79;20988;-76
2021/03/16 01:45:49;;;;;;;2.07;1.90;;;;;;;2.53;100.00;99147.87;1813485;79;20942;-75
2021/03/16 01:48:30;;;;;;;5.00;2.00;;;;;;;2.51;100.00;99147.17;1799426;76;20969;-76
2021/03/16 01:51:01;;;;;;;2.10;1.90;;;;;;;2.49;100.00;99149.16;1823190;77;20989;-76
2021/03/16 01:53:29;;;;;;;4.97;2.40;;;;;;;2.45;100.00;99152.59;1819499;78;21362;-74
2021/03/16 01:55:57;;;;;;;4.33;2.07;;;;;;;2.42;100.00;99154.20;1795928;80;20997;-76
2021/03/16 01:58:44;;;;;;;3.13;2.13;;;;;;;2.39;100.00;99155.81;1819495;78;21547;-76
2021/03/16 02:01:32;;;;;;;2.00;1.73;;;;;;;2.35;100.00;99143.74;1795952;79;21569;-76
2021/03/16 02:04:18;;;;;;;11.03;2.40;;;;;;;2.30;100.00;99147.32;1793431;78;20891;-75
2021/03/16 02:07:15;;;;;;;4.93;3.17;;;;;;;2.26;100.00;99147.59;1819416;78;21874;-77
2021/03/16 02:10:13;;;;;;;5.27;2.90;;;;;;;2.22;100.00;99139.53;1693317;84;20977;-75
2021/03/16 02:13:05;;;;;;;5.33;2.30;;;;;;;2.22;100.00;99144.02;1845111;76;26630;-76
2021/03/16 02:15:58;;;;;;;2.97;1.90;;;;;;;2.16;100.00;99144.56;1815187;77;21024;-76
2021/03/16 02:18:53;;;;;;;2.30;1.93;;;;;;;2.12;100.00;99141.34;1815331;79;22281;-75
2021/03/16 02:21:40;;;;;;;4.85;2.52;;;;;;;2.09;100.00;99148.30;1815444;79;21545;-75
2021/03/16 02:24:43;;;;;;;3.43;1.87;;;;;;;2.08;100.00;99153.27;1804320;78;20961;-76
2021/03/16 02:27:19;;;;;;;2.63;2.40;;;;;;;2.10;100.00;99139.30;1845344;76;26718;-76
2021/03/16 02:30:06;;;;;;;3.23;2.50;;;;;;;2.05;100.00;99148.21;1815327;78;21003;-75
2021/03/16 02:32:53;;;;;;;9.40;2.20;;;;;;;2.03;100.00;99153.67;1788994;79;21443;-76
2021/03/16 02:35:40;;;;;;;2.13;1.83;;;;;;;2.03;100.00;99146.17;1815315;78;20937;-76
2021/03/16 02:38:30;;;;;;;2.80;2.10;;;;;;;2.03;100.00;99158.17;1815296;78;20968;-75
2021/03/16 02:41:17;;;;;;;3.57;2.40;;;;;;;2.01;100.00;99151.64;1815258;79;21004;-76
2021/03/16 02:44:05;;;;;;;3.87;2.30;;;;;;;2.00;100.00;99149.11;1815287;79;21522;-76
2021/03/16 02:46:52;;;;;;;2.67;2.10;;;;;;;1.98;100.00;99145.24;1815351;79;21155;-75
2021/03/16 02:49:42;;;;;;;4.47;2.93;;;;;;;1.95;100.00;99142.88;1813579;78;21543;-75
2021/03/16 02:52:28;;;;;;;4.13;2.27;;;;;;;1.92;100.00;99148.48;1813462;79;20978;-77
2021/03/16 02:55:15;;;;;;;2.50;2.27;;;;;;;1.90;100.00;99145.11;1813395;79;20970;-76
2021/03/16 02:58:01;;;;;;;2.40;2.20;;;;;;;1.89;100.00;99148.74;1787226;79;20993;-76
2021/03/16 03:00:50;;;;;;;3.20;2.40;;;;;;;1.86;100.00;99155.20;1813455;79;22446;-75
2021/03/16 03:03:37;;;;;;;3.33;1.90;;;;;;;1.84;100.00;99154.98;1813478;79;21113;-75
2021/03/16 03:06:23;;;;;;;3.90;2.63;;;;;;;1.80;100.00;99154.41;1747041;82;21037;-75
2021/03/16 03:09:11;;;;;;;3.10;1.90;;;;;;;1.76;100.00;99148.17;1777922;80;21148;-74
2021/03/16 03:11:57;;;;;;;4.07;1.90;;;;;;;1.71;100.00;99151.23;1747103;81;21480;-76
2021/03/16 03:14:43;;;;;;;2.07;1.97;;;;;;;1.64;100.00;99145.59;1777842;80;22216;-76
2021/03/16 03:17:30;;;;;;;3.37;2.70;;;;;;;1.58;100.00;99139.49;1777772;80;20934;-76
2021/03/16 03:20:16;;;;;;;3.17;2.33;;;;;;;1.53;100.00;99151.05;1777797;80;20958;-76
2021/03/16 03:23:19;;;;;;;1.43;1.07;;;;;;;1.47;100.00;99147.57;1747020;82;21006;-76
2021/03/16 03:26:16;;;;;;;1.80;1.70;;;;;;;1.41;100.00;99143.62;1752804;81;20946;-76
2021/03/16 03:29:02;;;;;;;2.97;1.87;;;;;;;1.37;100.00;99140.05;1763391;81;21172;-76
2021/03/16 03:31:48;;;;;;;3.33;2.47;;;;;;;1.30;100.00;99140.58;1763337;81;21052;-75
2021/03/16 03:34:35;;;;;;;2.80;2.10;;;;;;;1.24;100.00;99137.13;1770595;80;20993;-77
2021/03/16 03:37:22;;;;;;;8.10;2.83;;;;;;;1.19;100.00;99138.48;1763098;81;21056;-76
2021/03/16 03:40:09;;;;;;;4.87;1.77;;;;;;;1.13;100.00;99140.73;1762890;81;21013;-75
2021/03/16 03:43:00;;;;;;;2.63;2.00;;;;;;;1.10;100.00;99144.98;1774208;80;21744;-77
2021/03/16 03:45:51;;;;;;;3.27;2.43;;;;;;;1.07;100.00;99141.73;1807649;79;20978;-76
2021/03/16 03:48:37;;;;;;;2.27;2.03;;;;;;;1.03;100.00;99145.16;1780044;80;21593;-77
2021/03/16 03:51:24;;;;;;;3.67;2.07;;;;;;;0.99;100.00;99143.71;1765811;80;20985;-75
2021/03/16 03:54:11;;;;;;;2.97;2.00;;;;;;;0.97;100.00;99145.66;1789783;80;21024;-76
2021/03/16 03:56:57;;;;;;;2.23;1.77;;;;;;;0.95;100.00;99151.61;1789886;80;21377;-76
2021/03/16 03:59:45;;;;;;;6.37;3.10;;;;;;;0.94;100.00;99156.11;1789686;79;21036;-76
2021/03/16 04:02:31;;;;;;;2.70;2.23;;;;;;;0.93;100.00;99157.06;1789870;80;20954;-76
2021/03/16 04:05:18;;;;;;;3.73;1.93;;;;;;;0.91;100.00;99162.17;1789759;79;21057;-76
2021/03/16 04:08:05;;;;;;;6.33;2.33;;;;;;;0.91;100.00;99171.49;1789353;80;21235;-76
2021/03/16 04:10:52;;;;;;;2.70;2.10;;;;;;;0.92;100.00;99182.02;1789454;80;21265;-76
2021/03/16 04:13:38;;;;;;;2.33;2.13;;;;;;;0.95;100.00;99206.19;1789272;79;21590;-75
2021/03/16 04:16:24;;;;;;;5.27;1.97;;;;;;;0.97;100.00;99194.91;1765453;80;20984;-76
2021/03/16 04:19:12;;;;;;;1.63;1.53;;;;;;;1.01;100.00;99179.52;1789645;80;21025;-76
2021/03/16 04:21:58;;;;;;;9.37;2.70;;;;;;;1.02;100.00;99207.34;1789602;80;21569;-75
2021/03/16 04:24:44;;;;;;;3.17;2.87;;;;;;;1.02;100.00;99224.66;1789778;80;22101;-77
2021/03/16 04:27:31;;;;;;;3.77;2.07;;;;;;;1.03;100.00;99197.07;1785709;78;21653;-77
2021/03/16 04:30:19;;;;;;;2.47;2.27;;;;;;;1.01;100.00;99212.34;1784876;80;21012;-76
2021/03/16 04:33:05;;;;;;;2.97;2.13;;;;;;;1.01;100.00;99223.45;1784943;79;21104;-77
2021/03/16 04:35:51;;;;;;;3.13;2.20;;;;;;;1.03;100.00;99204.22;1784881;80;21016;-77
2021/03/16 04:38:38;;;;;;;3.73;2.50;;;;;;;1.03;100.00;99204.22;1784960;80;21424;-76
2021/03/16 04:41:24;;;;;;;3.53;2.00;;;;;;;1.03;100.00;99199.73;1784920;80;21049;-76
2021/03/16 04:44:10;;;;;;;3.73;2.50;;;;;;;1.03;100.00;99227.69;1783525;80;21539;-77
2021/03/16 04:46:56;;;;;;;3.23;1.73;;;;;;;1.04;100.00;99198.73;1783201;80;20997;-75
2021/03/16 04:49:43;;;;;;;3.70;2.43;;;;;;;1.05;100.00;99203.59;1784832;80;21579;-76
2021/03/16 04:52:29;;;;;;;4.00;2.37;;;;;;;1.05;100.00;99209.77;1784780;80;22111;-75
2021/03/16 04:55:14;;;;;;;4.67;2.47;;;;;;;1.06;100.00;99211.46;1784911;80;20985;-76
2021/03/16 04:58:01;;;;;;;3.73;2.43;;;;;;;1.07;100.00;99229.60;1784907;80;21215;-76
2021/03/16 05:00:48;;;;;;;1.50;1.40;;;;;;;1.07;100.00;99193.66;1784918;80;20981;-74
2021/03/16 05:03:35;;;;;;;7.33;2.03;;;;;;;1.08;100.00;99197.52;1785037;79;21610;-76
2021/03/16 05:06:23;;;;;;;2.73;1.93;;;;;;;1.10;100.00;99194.23;1784818;79;21360;-77
2021/03/16 05:09:09;;;;;;;6.67;2.77;;;;;;;1.11;100.00;99196.41;1784982;80;21023;-75
2021/03/16 05:11:56;;;;;;;2.13;1.90;;;;;;;1.11;100.00;99203.89;1784876;80;21017;-76
2021/03/16 05:14:42;;;;;;;7.50;2.93;;;;;;;1.11;100.00;99201.23;1784960;80;20985;-76
2021/03/16 05:17:28;;;;;;;7.50;3.17;;;;;;;1.13;100.00;99223.73;1784899;80;20985;-76
2021/03/16 05:20:15;;;;;;;5.33;2.93;;;;;;;1.17;100.00;99221.20;1787158;79;21362;-75
2021/03/16 05:23:02;;;;;;;3.27;2.63;;;;;;;1.21;100.00;99209.79;1788115;79;20993;-77
2021/03/16 05:25:48;;;;;;;3.50;1.83;;;;;;;1.23;100.00;99194.52;1788757;77;20978;-77
2021/03/16 05:28:34;;;;;;;5.87;3.03;;;;;;;1.26;100.00;99194.27;1785175;80;20961;-76
2021/03/16 05:31:20;;;;;;;2.97;1.90;;;;;;;1.29;100.00;99216.14;1791617;79;21543;-76
2021/03/16 05:34:07;;;;;;;5.60;2.03;;;;;;;1.38;100.00;99205.19;1815012;79;21383;-76
2021/03/16 05:36:53;;;;;;;9.83;3.57;;;;;;;1.48;100.00;99211.88;1788725;80;20989;-76
2021/03/16 05:39:39;;;;;;;4.60;2.63;;;;;;;1.54;100.00;99205.16;1797700;79;20981;-77
2021/03/16 05:42:25;;;;;;;4.67;2.33;;;;;;;1.60;100.00;99215.31;1785175;80;21004;-77
2021/03/16 05:45:13;;;;;;;8.13;2.97;;;;;;;1.66;100.00;99214.75;1759712;81;21026;-75
2021/03/16 05:48:00;;;;;;;4.63;2.70;;;;;;;1.73;100.00;99207.07;1746554;80;21849;-77
2021/03/16 05:50:47;;;;;;;11.60;3.23;;;;;;;1.78;100.00;99205.68;1735393;82;21021;-76
2021/03/16 05:53:34;;;;;;;3.13;1.93;;;;;;;1.81;100.00;99204.09;1759633;81;21039;-76
2021/03/16 05:56:20;;;;;;;3.13;2.60;;;;;;;1.85;100.00;99194.00;1729390;82;21020;-77
2021/03/16 05:59:06;;;;;;;6.20;2.83;;;;;;;1.88;100.00;99203.89;1742104;82;20930;-76
2021/03/16 06:01:52;;;;;;;3.47;2.57;;;;;;;1.89;100.00;99202.93;1766487;80;21366;-75
2021/03/16 06:04:42;;;;;;;10.97;2.90;;;;;;;1.91;100.00;99210.77;1797440;79;21028;-75
2021/03/16 06:07:29;;;;;;;3.87;1.97;;;;;;;1.93;100.00;99208.83;1788836;80;20985;-75
2021/03/16 06:10:20;;;;;;;4.43;2.57;;;;;;;2.00;100.00;99210.44;1797901;79;20973;-76
2021/03/16 06:13:11;;;;;;;5.03;2.83;;;;;;;2.05;100.00;99212.20;1723671;81;21011;-76
2021/03/16 06:16:00;;;;;;;5.43;3.00;;;;;;;2.05;100.00;99212.20;1753475;81;21167;-75
2021/03/16 06:18:49;;;;;;;5.20;2.90;;;;;;;2.11;100.00;99200.14;1734740;82;21661;-78
2021/03/16 06:21:36;;;;;;;3.23;1.60;;;;;;;2.14;100.00;99202.05;1754128;81;21533;-75
2021/03/16 06:24:22;;;;;;;5.57;2.87;;;;;;;2.15;100.00;99189.08;1754271;81;21546;-76
2021/03/16 06:27:23;;;;;;;2.47;2.27;;;;;;;2.19;100.00;99186.97;1735270;82;21182;-77
2021/03/16 06:30:11;;;;;;;8.40;3.77;;;;;;;2.21;100.00;99189.88;1734866;82;21381;-75
2021/03/16 06:32:57;;;;;;;6.30;2.60;;;;;;;2.26;100.00;99196.94;1735120;82;21459;-74
2021/03/16 06:35:57;;;;;;;4.93;2.23;;;;;;;2.32;100.00;99194.23;1735066;82;21018;-75
2021/03/16 06:38:45;;;;;;;8.80;3.27;;;;;;;2.38;100.00;99184.83;1730849;82;21102;-75
2021/03/16 06:41:36;;;;;;;7.13;2.87;;;;;;;2.44;100.00;99182.45;1696703;84;21108;-76
2021/03/16 06:44:23;;;;;;;5.47;1.73;;;;;;;2.48;100.00;99176.34;1675570;84;21447;-77
2021/03/16 06:47:14;;;;;;;6.23;2.77;;;;;;;2.53;100.00;99175.39;1673817;85;21054;-76
2021/03/16 06:50:02;;;;;;;10.97;2.20;;;;;;;2.60;100.00;99166.34;1647542;87;21630;-78
2021/03/16 06:52:52;;;;;;;5.83;2.57;;;;;;;2.66;100.00;99162.62;1674680;85;20973;-77
2021/03/16 06:55:38;;;;;;;4.20;2.27;;;;;;;2.73;100.00;99168.23;1674842;85;20977;-75
2021/03/16 06:58:33;;;;;;;15.67;3.87;;;;;;;2.81;100.00;99169.69;1674733;85;21531;-76
2021/03/16 07:01:20;;;;;;;6.33;4.23;;;;;;;2.93;100.00;99152.19;1674920;85;21127;-76
2021/03/16 07:04:15;;;;;;;12.50;6.03;;;;;;;2.98;100.00;99158.78;1675111;85;21103;-76
2021/03/16 07:06:51;;;;;;;13.90;6.30;;;;;;;3.00;100.00;99145.28;1852732;77;26451;-77
2021/03/16 07:09:40;;;;;;;12.33;5.77;;;;;;;2.91;100.00;99146.16;1824605;78;20910;-74
2021/03/16 07:12:33;;;;;;;16.27;7.37;;;;;;;2.91;100.00;99132.80;1824135;78;21546;-76
2021/03/16 07:15:18;;;;;;;15.00;6.67;;;;;;;2.97;100.00;99137.55;1823882;78;21028;-76
2021/03/16 07:18:04;;;;;;;16.10;7.77;;;;;;;3.00;100.00;99139.44;1823679;78;21024;-77
2021/03/16 07:20:52;;;;;;;19.90;7.67;;;;;;;3.03;100.00;99137.82;1823964;78;20980;-76
2021/03/16 07:23:46;;;;;;;13.57;5.83;;;;;;;3.07;100.00;99125.02;1824116;78;20870;-77
2021/03/16 07:26:33;;;;;;;17.75;6.58;;;;;;;3.17;100.00;99131.17;1801992;77;21306;-79
2021/03/16 07:29:22;;;;;;;14.43;7.30;;;;;;;3.29;100.00;99135.83;1760620;80;20946;-82
2021/03/16 07:32:19;;;;;;;16.57;7.30;;;;;;;3.40;100.00;99132.98;1770157;80;21268;-76
2021/03/16 07:35:08;;;;;;;11.93;5.30;;;;;;;3.41;100.00;99131.98;1772281;80;20959;-75
2021/03/16 07:37:55;;;;;;;20.60;6.47;;;;;;;3.43;100.00;99137.18;1780007;80;20983;-74
2021/03/16 07:40:43;;;;;;;19.03;7.60;;;;;;;3.54;100.00;99126.78;1764488;80;21048;-76
2021/03/16 07:43:36;;;;;;;18.93;8.00;;;;;;;3.77;100.00;99125.41;1774000;80;20997;-75
2021/03/16 07:46:23;;;;;;;17.33;7.07;;;;;;;4.02;100.00;99128.36;1785428;80;21044;-74
2021/03/16 07:49:14;;;;;;;11.87;6.27;;;;;;;4.32;100.00;99125.80;1734580;80;20981;-76
2021/03/16 07:52:03;;;;;;;14.57;5.83;;;;;;;4.49;100.00;99122.75;1787627;80;21017;-75
2021/03/16 07:54:54;;;;;;;17.87;7.10;;;;;;;4.53;100.00;99116.59;1761327;80;22189;-75
2021/03/16 07:57:43;;;;;;;17.73;8.10;;;;;;;4.67;100.00;99120.05;1787651;80;21072;-74
2021/03/16 08:00:30;;;;;;;15.70;6.70;;;;;;;4.70;100.00;99121.08;1775474;80;20993;-75
2021/03/16 08:03:24;;;;;;;23.83;9.17;;;;;;;4.66;100.00;99118.89;1787631;80;21511;-76
2021/03/16 08:06:27;;;;;;;16.20;5.90;;;;;;;4.64;100.00;99117.70;1779418;80;21607;-75
2021/03/16 08:09:22;;;;;;;17.23;7.17;;;;;;;4.62;100.00;99106.31;1815157;79;21636;-74
2021/03/16 08:12:25;;;;;;;13.93;5.50;;;;;;;4.67;100.00;99104.48;1689846;85;20998;-74
2021/03/16 08:15:15;;;;;;;13.73;6.27;;;;;;;4.78;100.00;99114.10;1666651;85;21447;-76
2021/03/16 08:18:04;;;;;;;13.73;6.47;;;;;;;4.91;100.00;99103.83;1707299;83;21611;-77
2021/03/16 08:20:51;;;;;;;12.27;5.80;;;;;;;4.99;100.00;99117.25;1712923;83;20965;-78
2021/03/16 08:23:37;;;;;;;13.27;5.80;;;;;;;5.09;100.00;99113.14;1716881;83;21759;-80
2021/03/16 08:26:24;;;;;;;17.53;6.87;;;;;;;5.32;100.00;99092.82;1703690;83;21195;-82
2021/03/16 08:29:13;;;;;;;14.53;6.53;;;;;;;5.56;100.00;99093.08;1705432;83;21211;-78
2021/03/16 08:32:00;;;;;;;15.07;6.50;;;;;;;5.80;100.00;99074.89;1706207;83;20991;-80
2021/03/16 08:34:50;;;;;;;13.80;5.70;;;;;;;5.90;100.00;99077.77;1706612;83;21002;-76
2021/03/16 08:37:40;;;;;;;12.20;6.07;;;;;;;5.98;100.00;99076.97;1704084;83;21812;-79
2021/03/16 08:40:32;;;;;;;12.87;6.80;;;;;;;6.09;100.00;99073.12;1668770;83;21468;-79
2021/03/16 08:43:18;;;;;;;13.83;6.20;;;;;;;6.23;100.00;99077.86;1702581;83;21109;-79
2021/03/16 08:46:09;;;;;;;14.90;6.60;;;;;;;6.41;100.00;99068.78;1700138;81;21061;-81
2021/03/16 08:48:55;;;;;;;13.37;6.03;;;;;;;6.68;100.00;99068.11;1708252;82;21069;-80
2021/03/16 08:51:42;;;;;;;18.07;8.80;;;;;;;6.92;100.00;99059.98;1714334;82;21664;-77
2021/03/16 08:54:28;;;;;;;19.07;7.83;;;;;;;7.05;100.00;99060.81;1697451;83;21018;-78
2021/03/16 08:57:26;;;;;;;15.63;6.83;;;;;;;7.15;100.00;99068.67;1718009;83;21605;-79
2021/03/16 09:00:15;;;;;;;18.67;7.57;;;;;;;7.17;100.00;99047.82;1701531;83;21097;-78
2021/03/16 09:03:02;;;;;;;18.83;7.43;;;;;;;7.17;100.00;99056.75;1696092;83;21045;-79
2021/03/16 09:05:48;;;;;;;15.30;7.03;;;;;;;7.32;100.00;99054.67;1685669;83;22167;-77
2021/03/16 09:08:34;;;;;;;18.63;6.80;;;;;;;7.44;100.00;99055.11;1773426;78;21030;-77
2021/03/16 09:11:34;;;;;;;16.67;7.50;;;;;;;7.61;100.00;99064.78;1778988;79;20990;-79
2021/03/16 09:14:21;;;;;;;16.73;6.60;;;;;;;7.73;100.00;99051.78;1739198;82;20970;-75
2021/03/16 09:17:08;;;;;;;17.07;6.47;;;;;;;7.68;100.00;99050.13;1709736;82;21618;-77
2021/03/16 09:19:55;;;;;;;14.07;5.93;;;;;;;7.69;100.00;99049.13;1688746;84;22264;-77
2021/03/16 09:22:44;;;;;;;15.57;6.73;;;;;;;7.81;100.00;99043.67;1709059;83;20973;-78
2021/03/16 09:25:40;;;;;;;15.03;7.03;;;;;;;7.98;100.00;99041.20;1709770;82;21034;-75
2021/03/16 09:28:29;;;;;;;15.70;7.00;;;;;;;8.11;100.00;99037.05;1707628;82;21525;-81
2021/03/16 09:31:15;;;;;;;17.23;7.20;;;;;;;8.17;100.00;99038.52;1702635;82;21175;-79
2021/03/16 09:34:02;;;;;;;13.93;6.17;;;;;;;8.20;100.00;99017.63;1692484;82;21302;-76
2021/03/16 09:37:07;;;;;;;14.87;6.53;;;;;;;8.22;100.00;99024.53;1704527;83;21591;-79
2021/03/16 09:39:57;;;;;;;15.03;6.33;;;;;;;8.26;100.00;99014.23;1844635;76;23856;-77
2021/03/16 09:42:41;;;;;;;25.73;11.80;;;;;;;8.24;100.00;99027.88;1742909;81;21133;-78
2021/03/16 09:45:22;;;;;;;18.67;7.87;;;;;;;8.38;100.00;99014.12;1845786;76;22674;-79
2021/03/16 09:47:51;;;;;;;17.60;7.73;;;;;;;8.59;100.00;99013.46;1816210;79;20996;-80
2021/03/16 09:50:36;;;;;;;19.47;7.47;;;;;;;8.80;100.00;98999.76;1815595;79;21361;-78
2021/03/16 09:53:06;;;;;;;17.77;7.95;;;;;;;8.85;100.00;99004.95;1815569;78;21037;-75
2021/03/16 09:55:35;;;;;;;20.63;8.30;;;;;;;8.83;100.00;98998.88;1783992;80;21533;-79
2021/03/16 09:58:03;;;;;;;17.97;8.03;;;;;;;8.84;100.00;98997.87;1800492;79;20901;-77
2021/03/16 10:00:31;;;;;;;25.40;8.60;;;;;;;8.74;100.00;98994.08;1800612;79;21005;-79
2021/03/16 10:03:05;;;;;;;19.07;8.47;;;;;;;8.62;100.00;98999.59;1798992;79;22156;-80
2021/03/16 10:05:33;;;;;;;22.17;8.57;;;;;;;8.61;100.00;99006.55;1790119;78;21363;-76
2021/03/16 10:08:01;;;;;;;23.30;9.23;;;;;;;8.71;100.00;99003.91;1781137;79;21011;-76
2021/03/16 10:10:33;;;;;;;25.17;9.60;;;;;;;8.93;100.00;99004.01;1795266;79;20976;-78
2021/03/16 10:13:06;;;;;;;22.00;9.37;;;;;;;9.12;100.00;98998.58;1771046;81;20987;-80
2021/03/16 10:15:43;;;;;;;26.33;8.40;;;;;;;9.32;100.00;98998.82;1772165;81;21323;-79
2021/03/16 10:18:13;;;;;;;18.30;7.17;;;;;;;9.48;100.00;98989.16;1770510;81;21055;-80
2021/03/16 10:20:45;;;;;;;17.23;7.73;;;;;;;9.57;100.00;98992.58;1775150;79;21012;-79
2021/03/16 10:23:22;;;;;;;19.23;8.18;;;;;;;9.67;100.00;98989.58;1778734;79;21542;-83
2021/03/16 10:26:01;;;;;;;24.77;9.83;;;;;;;9.75;100.00;98978.64;1768247;81;21020;-83
2021/03/16 10:28:41;;;;;;;22.17;8.87;;;;;;;9.90;100.00;98989.41;1812142;77;22719;-76
2021/03/16 10:31:24;;;;;;;;;;;;;;;9.71;100.00;98983.29;1770728;80;20922;-78
2021/03/16 10:33:55;;;;;;;20.50;8.57;;;;;;;9.30;100.00;98988.21;1762428;80;21198;-82
2021/03/16 10:36:24;;;;;;;19.67;8.40;;;;;;;8.86;100.00;98978.30;1776474;80;20946;-79
2021/03/16 10:38:53;;;;;;;25.23;9.50;;;;;;;8.46;100.00;98976.87;1783133;80;21600;-78
2021/03/16 10:41:21;;;;;;;18.27;7.77;;;;;;;8.14;100.00;98986.89;1779286;80;21524;-76
2021/03/16 10:43:50;;;;;;;19.43;8.73;;;;;;;7.95;100.00;98988.20;1781087;80;21621;-81
2021/03/16 10:46:18;;;;;;;18.47;8.10;;;;;;;7.82;100.00;98989.33;1758710;80;21190;-79
2021/03/16 10:48:47;;;;;;;18.27;7.07;;;;;;;7.71;100.00;98986.55;1706318;84;21028;-78
2021/03/16 10:51:15;;;;;;;13.00;6.30;;;;;;;7.66;100.00;98986.24;1708836;83;20957;-80
2021/03/16 10:53:43;;;;;;;27.17;10.70;;;;;;;7.78;100.00;98988.33;1715889;83;21807;-80
2021/03/16 10:56:13;;;;;;;22.23;9.23;;;;;;;8.01;100.00;98987.50;1718777;82;21040;-78
2021/03/16 10:58:41;;;;;;;19.67;7.57;;;;;;;8.18;100.00;98988.22;1709981;82;21566;-79
2021/03/16 11:01:12;;;;;;;18.80;8.37;;;;;;;8.36;100.00;98995.97;1721234;82;21186;-75
2021/03/16 11:03:40;;;;;;;21.27;8.37;;;;;;;8.64;100.00;98987.30;1755614;81;21004;-77
2021/03/16 11:06:09;;;;;;;21.27;7.83;;;;;;;8.90;100.00;98985.50;1755365;81;21016;-79
2021/03/16 11:08:38;;;;;;;19.27;8.47;;;;;;;8.97;100.00;98987.78;1757124;80;20974;-76
2021/03/16 11:11:05;;;;;;;19.47;8.83;;;;;;;8.84;100.00;98983.05;1768373;80;21353;-75
2021/03/16 11:13:34;;;;;;;18.70;8.43;;;;;;;8.79;100.00;98991.36;1778315;80;21100;-78
2021/03/16 11:16:05;;;;;;;19.90;8.10;;;;;;;8.70;100.00;98994.14;1754082;80;20902;-78
2021/03/16 11:18:33;;;;;;;21.47;8.57;;;;;;;8.72;100.00;98973.22;1752229;80;20998;-74
2021/03/16 11:21:01;;;;;;;20.90;7.53;;;;;;;8.78;100.00;98979.73;1770540;80;21056;-77
2021/03/16 11:23:28;;;;;;;20.27;8.50;;;;;;;8.93;100.00;98978.39;1752793;78;21682;-78
2021/03/16 11:25:57;;;;;;;19.47;8.80;;;;;;;9.18;100.00;98978.10;1762120;80;21037;-74
2021/03/16 11:28:26;;;;;;;22.70;8.33;;;;;;;9.35;100.00;98967.42;1748853;80;20971;-74
2021/03/16 11:30:54;;;;;;;22.27;9.13;;;;;;;9.51;100.00;98963.66;1761976;81;21336;-78
2021/03/16 11:33:22;;;;;;;19.23;8.80;;;;;;;9.61;100.00;98963.34;1753648;81;20947;-78
2021/03/16 11:36:09;;;;;;;19.83;8.63;;;;;;;9.69;100.00;98953.26;1743991;81;21389;-76
2021/03/16 11:38:56;;;;;;;19.30;7.90;;;;;;;9.73;100.00;98944.27;1739633;81;20955;-77
2021/03/16 11:41:45;;;;;;;18.70;8.03;;;;;;;9.69;100.00;98942.98;1737859;81;21148;-78
2021/03/16 11:44:31;;;;;;;16.27;8.77;;;;;;;9.61;100.00;98948.50;1752978;81;21066;-74
2021/03/16 11:47:18;;;;;;;21.10;8.93;;;;;;;9.57;100.00;98942.65;1743018;81;21212;-73
2021/03/16 11:50:07;;;;;;;17.00;8.18;;;;;;;9.63;100.00;98935.64;1744114;81;21327;-72
2021/03/16 11:52:54;;;;;;;15.70;7.20;;;;;;;9.62;100.00;98929.41;1751924;80;20997;-73
2021/03/16 11:55:40;;;;;;;21.67;8.40;;;;;;;9.60;100.00;98927.43;1750361;81;21013;-73
2021/03/16 11:58:27;;;;;;;22.62;8.98;;;;;;;9.65;100.00;98928.19;1677520;85;21033;-76
2021/03/16 12:32:25;;;;;;;19.85;8.98;;;;;;;9.08;100.00;98883.50;1778975;77;20951;-77
2021/03/16 12:35:13;;;;;;;18.37;8.18;;;;;;;9.24;100.00;98889.67;1761208;80;20998;-77
2021/03/16 12:37:59;;;;;;;16.00;7.30;;;;;;;9.35;100.00;98879.75;1758852;80;20974;-79
2021/03/16 12:40:46;;;;;;;17.50;7.00;;;;;;;9.48;100.00;98880.39;1739658;81;21237;-80
2021/03/16 12:43:35;;;;;;;15.67;7.33;;;;;;;9.49;100.00;98890.14;1756780;81;20923;-82
2021/03/16 12:46:21;;;;;;;16.67;7.67;;;;;;;9.39;100.00;98895.04;1757265;81;21113;-76
2021/03/16 12:49:08;;;;;;;15.60;6.87;;;;;;;9.27;100.00;98902.78;1737055;80;20987;-80
2021/03/16 12:51:55;;;;;;;18.20;7.10;;;;;;;9.27;100.00;98897.39;1676260;83;21006;-79
2021/03/16 12:54:41;;;;;;;13.83;6.40;;;;;;;9.27;100.00;98885.25;1740034;81;21611;-78
2021/03/16 12:57:27;;;;;;;16.73;6.90;;;;;;;9.29;100.00;98887.24;1694281;83;21037;-78
2021/03/16 13:00:17;;;;;;;15.85;6.70;;;;;;;9.36;100.00;98886.80;1737584;80;21207;-78
2021/03/16 13:03:06;;;;;;;16.97;7.23;;;;;;;9.38;100.00;98894.70;1749856;80;21164;-76
2021/03/16 13:05:54;;;;;;;20.03;8.13;;;;;;;9.29;100.00;98898.86;1749083;81;21050;-77
2021/03/16 13:08:40;;;;;;;17.13;8.00;;;;;;;9.24;100.00;98886.98;1729462;81;21575;-75
2021/03/16 13:11:26;;;;;;;19.03;9.17;;;;;;;9.30;100.00;98884.88;1735414;81;21050;-78